sensor_id;sensor_type;location;lat;lon;timestamp;temperature;humidity
24450;DHT22;13349;50.984;5.822;2022-12-17T00:00:23;-1.50;99.90
24450;DHT22;13349;50.984;5.822;2022-12-17T00:03:09;-1.30;99.90
24450;DHT22;13349;50.984;5.822;2022-12-17T00:05:54;-1.30;99.90
24450;DHT22;13349;50.984;5.822;2022-12-17T00:08:38;-1.20;99.90
24450;DHT22;13349;50.984;5.822;2022-12-17T00:11:24;-1.10;99.90
24450;DHT22;13349;50.984;5.822;2022-12-17T00:14:09;-1.10;99.90
24450;DHT22;13349;50.984;5.822;2022-12-17T00:16:54;-1.00;99.90
24450;DHT22;13349;50.984;5.822;2022-12-17T00:19:38;-1.10;99.90
24450;DHT22;13349;50.984;5.822;2022-12-17T00:22:24;-1.00;99.90
24450;DHT22;13349;50.984;5.822;2022-12-17T00:25:08;-1.00;99.90
24450;DHT22;13349;50.984;5.822;2022-12-17T00:27:54;-1.10;99.90
24450;DHT22;13349;50.984;5.822;2022-12-17T00:30:39;-1.10;99.90
24450;DHT22;13349;50.984;5.822;2022-12-17T00:33:23;-1.10;99.90
24450;DHT22;13349;50.984;5.822;2022-12-17T00:36:08;-1.20;99.90
24450;DHT22;13349;50.984;5.822;2022-12-17T00:39:04;-1.10;99.90
24450;DHT22;13349;50.984;5.822;2022-12-17T00:41:49;-1.10;99.90
24450;DHT22;13349;50.984;5.822;2022-12-17T00:44:35;-1.10;99.90
24450;DHT22;13349;50.984;5.822;2022-12-17T00:47:20;-1.10;99.90
24450;DHT22;13349;50.984;5.822;2022-12-17T00:50:05;-1.10;99.90
24450;DHT22;13349;50.984;5.822;2022-12-17T00:52:51;-1.10;99.90
24450;DHT22;13349;50.984;5.822;2022-12-17T00:55:36;-1.10;99.90
24450;DHT22;13349;50.984;5.822;2022-12-17T00:58:20;-1.20;99.90
24450;DHT22;13349;50.984;5.822;2022-12-17T01:01:06;-1.20;99.90
24450;DHT22;13349;50.984;5.822;2022-12-17T01:03:50;-1.30;99.90
24450;DHT22;13349;50.984;5.822;2022-12-17T01:06:35;-1.30;99.90
24450;DHT22;13349;50.984;5.822;2022-12-17T01:09:20;-1.40;99.90
24450;DHT22;13349;50.984;5.822;2022-12-17T01:12:05;-1.40;99.90
24450;DHT22;13349;50.984;5.822;2022-12-17T01:14:49;-1.40;99.90
24450;DHT22;13349;50.984;5.822;2022-12-17T01:17:35;-1.60;99.90
24450;DHT22;13349;50.984;5.822;2022-12-17T01:20:22;-1.60;99.90
24450;DHT22;13349;50.984;5.822;2022-12-17T01:23:06;-1.80;99.90
24450;DHT22;13349;50.984;5.822;2022-12-17T01:25:52;-1.80;99.90
24450;DHT22;13349;50.984;5.822;2022-12-17T01:28:36;-1.80;99.90
24450;DHT22;13349;50.984;5.822;2022-12-17T01:31:21;-1.80;99.90
24450;DHT22;13349;50.984;5.822;2022-12-17T01:34:07;-1.90;99.90
24450;DHT22;13349;50.984;5.822;2022-12-17T01:36:51;-1.90;99.90
24450;DHT22;13349;50.984;5.822;2022-12-17T01:39:36;-1.90;99.90
24450;DHT22;13349;50.984;5.822;2022-12-17T01:42:20;-1.80;99.90
24450;DHT22;13349;50.984;5.822;2022-12-17T01:45:08;-1.80;99.90
24450;DHT22;13349;50.984;5.822;2022-12-17T01:47:56;-1.80;99.90
24450;DHT22;13349;50.984;5.822;2022-12-17T01:50:49;-1.70;99.90
24450;DHT22;13349;50.984;5.822;2022-12-17T01:53:36;-1.70;99.90
24450;DHT22;13349;50.984;5.822;2022-12-17T01:56:23;-1.60;99.90
24450;DHT22;13349;50.984;5.822;2022-12-17T01:59:08;-1.60;99.90
24450;DHT22;13349;50.984;5.822;2022-12-17T02:01:53;-1.60;99.90
24450;DHT22;13349;50.984;5.822;2022-12-17T02:04:38;-1.60;99.90
24450;DHT22;13349;50.984;5.822;2022-12-17T02:07:36;-1.60;99.90
24450;DHT22;13349;50.984;5.822;2022-12-17T02:10:26;-1.60;99.90
24450;DHT22;13349;50.984;5.822;2022-12-17T02:13:15;-1.60;99.90
24450;DHT22;13349;50.984;5.822;2022-12-17T02:16:08;-1.60;99.90
24450;DHT22;13349;50.984;5.822;2022-12-17T02:19:00;-1.60;99.90
24450;DHT22;13349;50.984;5.822;2022-12-17T02:22:04;-1.60;99.90
24450;DHT22;13349;50.984;5.822;2022-12-17T02:24:59;-1.50;99.90
24450;DHT22;13349;50.984;5.822;2022-12-17T02:27:50;-1.50;99.90
24450;DHT22;13349;50.984;5.822;2022-12-17T02:30:36;-1.50;99.90
24450;DHT22;13349;50.984;5.822;2022-12-17T02:33:21;-1.50;99.90
24450;DHT22;13349;50.984;5.822;2022-12-17T02:36:06;-1.50;99.90
24450;DHT22;13349;50.984;5.822;2022-12-17T02:38:51;-1.40;99.90
24450;DHT22;13349;50.984;5.822;2022-12-17T02:41:39;-1.50;99.90
24450;DHT22;13349;50.984;5.822;2022-12-17T02:44:26;-1.50;99.90
24450;DHT22;13349;50.984;5.822;2022-12-17T02:47:12;-1.50;99.90
24450;DHT22;13349;50.984;5.822;2022-12-17T02:49:57;-1.30;99.90
24450;DHT22;13349;50.984;5.822;2022-12-17T02:52:45;-1.30;99.90
24450;DHT22;13349;50.984;5.822;2022-12-17T02:55:31;-1.30;99.90
24450;DHT22;13349;50.984;5.822;2022-12-17T02:58:15;-1.30;99.90
24450;DHT22;13349;50.984;5.822;2022-12-17T03:01:01;-1.40;99.90
24450;DHT22;13349;50.984;5.822;2022-12-17T03:03:46;-1.40;99.90
24450;DHT22;13349;50.984;5.822;2022-12-17T03:06:30;-1.50;99.90
24450;DHT22;13349;50.984;5.822;2022-12-17T03:09:15;-1.40;99.90
24450;DHT22;13349;50.984;5.822;2022-12-17T03:11:59;-1.50;99.90
24450;DHT22;13349;50.984;5.822;2022-12-17T03:14:44;-1.40;99.90
24450;DHT22;13349;50.984;5.822;2022-12-17T03:17:30;-1.50;99.90
24450;DHT22;13349;50.984;5.822;2022-12-17T03:20:15;-1.60;99.90
24450;DHT22;13349;50.984;5.822;2022-12-17T03:23:03;-1.60;99.90
24450;DHT22;13349;50.984;5.822;2022-12-17T03:25:48;-1.50;99.90
24450;DHT22;13349;50.984;5.822;2022-12-17T03:28:33;-1.40;99.90
24450;DHT22;13349;50.984;5.822;2022-12-17T03:31:17;-1.40;99.90
24450;DHT22;13349;50.984;5.822;2022-12-17T03:34:03;-1.40;99.90
24450;DHT22;13349;50.984;5.822;2022-12-17T03:36:48;-1.40;99.90
24450;DHT22;13349;50.984;5.822;2022-12-17T03:39:32;-1.30;99.90
24450;DHT22;13349;50.984;5.822;2022-12-17T03:42:17;-1.30;99.90
24450;DHT22;13349;50.984;5.822;2022-12-17T03:45:10;-1.30;99.90
24450;DHT22;13349;50.984;5.822;2022-12-17T03:48:04;-1.30;99.90
24450;DHT22;13349;50.984;5.822;2022-12-17T03:50:50;-1.20;99.90
24450;DHT22;13349;50.984;5.822;2022-12-17T03:53:35;-1.20;99.90
24450;DHT22;13349;50.984;5.822;2022-12-17T03:56:20;-1.30;99.90
24450;DHT22;13349;50.984;5.822;2022-12-17T03:59:08;-1.30;99.90
24450;DHT22;13349;50.984;5.822;2022-12-17T04:01:52;-1.30;99.90
24450;DHT22;13349;50.984;5.822;2022-12-17T04:04:37;-1.30;99.90
24450;DHT22;13349;50.984;5.822;2022-12-17T04:07:23;-1.30;99.90
24450;DHT22;13349;50.984;5.822;2022-12-17T04:10:08;-1.40;99.90
24450;DHT22;13349;50.984;5.822;2022-12-17T04:12:53;-1.40;99.90
24450;DHT22;13349;50.984;5.822;2022-12-17T04:15:38;-1.30;99.90
24450;DHT22;13349;50.984;5.822;2022-12-17T04:18:37;-1.30;99.90
24450;DHT22;13349;50.984;5.822;2022-12-17T04:21:21;-1.30;99.90
24450;DHT22;13349;50.984;5.822;2022-12-17T04:24:07;-1.30;99.90
24450;DHT22;13349;50.984;5.822;2022-12-17T04:26:52;-1.30;99.90
24450;DHT22;13349;50.984;5.822;2022-12-17T04:29:36;-1.30;99.90
24450;DHT22;13349;50.984;5.822;2022-12-17T04:32:21;-1.30;99.90
24450;DHT22;13349;50.984;5.822;2022-12-17T04:35:06;-1.30;99.90
24450;DHT22;13349;50.984;5.822;2022-12-17T04:37:50;-1.30;99.90
24450;DHT22;13349;50.984;5.822;2022-12-17T04:40:32;-1.30;99.90
24450;DHT22;13349;50.984;5.822;2022-12-17T04:43:17;-1.20;99.90
24450;DHT22;13349;50.984;5.822;2022-12-17T04:46:01;-1.30;99.90
24450;DHT22;13349;50.984;5.822;2022-12-17T04:48:46;-1.30;99.90
24450;DHT22;13349;50.984;5.822;2022-12-17T04:51:31;-1.30;99.90
24450;DHT22;13349;50.984;5.822;2022-12-17T04:54:15;-1.30;99.90
24450;DHT22;13349;50.984;5.822;2022-12-17T04:57:01;-1.30;99.90
24450;DHT22;13349;50.984;5.822;2022-12-17T04:59:46;-1.30;99.90
24450;DHT22;13349;50.984;5.822;2022-12-17T05:02:31;-1.30;99.90
24450;DHT22;13349;50.984;5.822;2022-12-17T05:05:15;-1.30;99.90
24450;DHT22;13349;50.984;5.822;2022-12-17T05:08:00;-1.30;99.90
24450;DHT22;13349;50.984;5.822;2022-12-17T05:10:44;-1.30;99.90
24450;DHT22;13349;50.984;5.822;2022-12-17T05:13:30;-1.30;99.90
24450;DHT22;13349;50.984;5.822;2022-12-17T05:16:26;-1.30;99.90
24450;DHT22;13349;50.984;5.822;2022-12-17T05:19:11;-1.30;99.90
24450;DHT22;13349;50.984;5.822;2022-12-17T05:21:56;-1.40;99.90
24450;DHT22;13349;50.984;5.822;2022-12-17T05:24:40;-1.40;99.90
24450;DHT22;13349;50.984;5.822;2022-12-17T05:27:24;-1.40;99.90
24450;DHT22;13349;50.984;5.822;2022-12-17T05:30:11;-1.40;99.90
24450;DHT22;13349;50.984;5.822;2022-12-17T05:32:59;-1.40;99.90
24450;DHT22;13349;50.984;5.822;2022-12-17T05:35:44;-1.40;99.90
24450;DHT22;13349;50.984;5.822;2022-12-17T05:38:28;-1.50;99.90
24450;DHT22;13349;50.984;5.822;2022-12-17T05:41:21;-1.40;99.90
24450;DHT22;13349;50.984;5.822;2022-12-17T05:44:06;-1.50;99.90
24450;DHT22;13349;50.984;5.822;2022-12-17T05:46:52;-1.50;99.90
24450;DHT22;13349;50.984;5.822;2022-12-17T05:49:37;-1.50;99.90
24450;DHT22;13349;50.984;5.822;2022-12-17T05:52:21;-1.50;99.90
24450;DHT22;13349;50.984;5.822;2022-12-17T05:55:06;-1.50;99.90
24450;DHT22;13349;50.984;5.822;2022-12-17T05:57:51;-1.50;99.90
24450;DHT22;13349;50.984;5.822;2022-12-17T06:00:36;-1.50;99.90
24450;DHT22;13349;50.984;5.822;2022-12-17T06:03:22;-1.50;99.90
24450;DHT22;13349;50.984;5.822;2022-12-17T06:06:06;-1.50;99.90
24450;DHT22;13349;50.984;5.822;2022-12-17T06:08:51;-1.60;99.90
24450;DHT22;13349;50.984;5.822;2022-12-17T06:11:36;-1.50;99.90
24450;DHT22;13349;50.984;5.822;2022-12-17T06:14:20;-1.50;99.90
24450;DHT22;13349;50.984;5.822;2022-12-17T06:17:04;-1.50;99.90
24450;DHT22;13349;50.984;5.822;2022-12-17T06:19:50;-1.60;99.90
24450;DHT22;13349;50.984;5.822;2022-12-17T06:22:35;-1.60;99.90
24450;DHT22;13349;50.984;5.822;2022-12-17T06:25:20;-1.60;99.90
24450;DHT22;13349;50.984;5.822;2022-12-17T06:28:04;-1.60;99.90
24450;DHT22;13349;50.984;5.822;2022-12-17T06:30:50;-1.60;99.90
24450;DHT22;13349;50.984;5.822;2022-12-17T06:33:34;-1.60;99.90
24450;DHT22;13349;50.984;5.822;2022-12-17T06:36:20;-1.70;99.90
24450;DHT22;13349;50.984;5.822;2022-12-17T06:39:05;-1.70;99.90
24450;DHT22;13349;50.984;5.822;2022-12-17T06:41:49;-1.70;99.90
24450;DHT22;13349;50.984;5.822;2022-12-17T06:44:34;-1.70;99.90
24450;DHT22;13349;50.984;5.822;2022-12-17T06:47:18;-1.70;99.90
24450;DHT22;13349;50.984;5.822;2022-12-17T06:50:04;-1.70;99.90
24450;DHT22;13349;50.984;5.822;2022-12-17T06:52:58;-1.70;99.90
24450;DHT22;13349;50.984;5.822;2022-12-17T06:55:43;-1.80;99.90
24450;DHT22;13349;50.984;5.822;2022-12-17T06:58:28;-1.80;99.90
24450;DHT22;13349;50.984;5.822;2022-12-17T07:01:12;-1.80;99.90
24450;DHT22;13349;50.984;5.822;2022-12-17T07:03:57;-1.80;99.90
24450;DHT22;13349;50.984;5.822;2022-12-17T07:06:41;-1.80;99.90
24450;DHT22;13349;50.984;5.822;2022-12-17T07:09:27;-1.90;99.90
24450;DHT22;13349;50.984;5.822;2022-12-17T07:12:12;-1.90;99.90
24450;DHT22;13349;50.984;5.822;2022-12-17T07:14:57;-1.90;99.90
24450;DHT22;13349;50.984;5.822;2022-12-17T07:17:41;-1.90;99.90
24450;DHT22;13349;50.984;5.822;2022-12-17T07:20:26;-1.90;99.90
24450;DHT22;13349;50.984;5.822;2022-12-17T07:23:10;-1.90;99.90
24450;DHT22;13349;50.984;5.822;2022-12-17T07:25:57;-2.00;82.00
24450;DHT22;13349;50.984;5.822;2022-12-17T07:28:41;-2.00;80.80
24450;DHT22;13349;50.984;5.822;2022-12-17T07:31:26;-2.00;67.80
24450;DHT22;13349;50.984;5.822;2022-12-17T07:34:11;-2.10;88.00
24450;DHT22;13349;50.984;5.822;2022-12-17T07:36:55;-2.10;45.80
24450;DHT22;13349;50.984;5.822;2022-12-17T07:39:40;-2.10;71.40
24450;DHT22;13349;50.984;5.822;2022-12-17T07:42:40;-2.10;92.40
24450;DHT22;13349;50.984;5.822;2022-12-17T07:45:25;-2.10;90.90
24450;DHT22;13349;50.984;5.822;2022-12-17T07:48:09;-2.10;90.70
24450;DHT22;13349;50.984;5.822;2022-12-17T07:50:54;-2.20;71.10
24450;DHT22;13349;50.984;5.822;2022-12-17T07:53:39;-2.30;69.80
24450;DHT22;13349;50.984;5.822;2022-12-17T07:56:23;-2.20;99.90
24450;DHT22;13349;50.984;5.822;2022-12-17T07:59:09;-2.30;99.90
24450;DHT22;13349;50.984;5.822;2022-12-17T08:01:50;-2.40;99.90
24450;DHT22;13349;50.984;5.822;2022-12-17T08:04:35;-2.40;99.90
24450;DHT22;13349;50.984;5.822;2022-12-17T08:07:19;-2.40;99.90
24450;DHT22;13349;50.984;5.822;2022-12-17T08:10:05;-2.40;99.90
24450;DHT22;13349;50.984;5.822;2022-12-17T08:12:53;-2.50;99.90
24450;DHT22;13349;50.984;5.822;2022-12-17T08:15:39;-2.50;99.90
24450;DHT22;13349;50.984;5.822;2022-12-17T08:18:24;-2.50;99.90
24450;DHT22;13349;50.984;5.822;2022-12-17T08:21:09;-2.50;99.90
24450;DHT22;13349;50.984;5.822;2022-12-17T08:23:54;-2.50;99.90
24450;DHT22;13349;50.984;5.822;2022-12-17T08:26:38;-2.50;99.90
24450;DHT22;13349;50.984;5.822;2022-12-17T08:29:23;-2.50;99.90
24450;DHT22;13349;50.984;5.822;2022-12-17T08:32:09;-2.50;99.90
24450;DHT22;13349;50.984;5.822;2022-12-17T08:34:54;-2.60;99.90
24450;DHT22;13349;50.984;5.822;2022-12-17T08:37:38;-2.60;99.90
24450;DHT22;13349;50.984;5.822;2022-12-17T08:40:23;-2.60;99.90
24450;DHT22;13349;50.984;5.822;2022-12-17T08:43:07;-2.60;99.90
24450;DHT22;13349;50.984;5.822;2022-12-17T08:45:52;-2.60;99.90
24450;DHT22;13349;50.984;5.822;2022-12-17T08:48:39;-2.70;99.90
24450;DHT22;13349;50.984;5.822;2022-12-17T08:51:24;-2.70;99.90
24450;DHT22;13349;50.984;5.822;2022-12-17T08:54:08;-2.70;99.90
24450;DHT22;13349;50.984;5.822;2022-12-17T08:56:52;-2.70;99.90
24450;DHT22;13349;50.984;5.822;2022-12-17T08:59:37;-2.70;99.90
24450;DHT22;13349;50.984;5.822;2022-12-17T09:02:22;-2.70;99.90
24450;DHT22;13349;50.984;5.822;2022-12-17T09:05:08;-2.80;99.90
24450;DHT22;13349;50.984;5.822;2022-12-17T09:07:58;-2.80;99.90
24450;DHT22;13349;50.984;5.822;2022-12-17T09:10:42;-2.90;99.90
24450;DHT22;13349;50.984;5.822;2022-12-17T09:13:27;-2.90;99.90
24450;DHT22;13349;50.984;5.822;2022-12-17T09:16:11;-2.90;99.90
24450;DHT22;13349;50.984;5.822;2022-12-17T09:18:56;-2.90;99.90
24450;DHT22;13349;50.984;5.822;2022-12-17T09:21:42;-3.00;99.90
24450;DHT22;13349;50.984;5.822;2022-12-17T09:24:27;-2.90;99.90
24450;DHT22;13349;50.984;5.822;2022-12-17T09:27:11;-3.00;99.90
24450;DHT22;13349;50.984;5.822;2022-12-17T09:29:56;-3.00;99.90
24450;DHT22;13349;50.984;5.822;2022-12-17T09:32:40;-2.90;99.90
24450;DHT22;13349;50.984;5.822;2022-12-17T09:35:25;-3.00;99.90
24450;DHT22;13349;50.984;5.822;2022-12-17T09:38:15;-2.90;99.90
24450;DHT22;13349;50.984;5.822;2022-12-17T09:41:06;-2.90;99.90
24450;DHT22;13349;50.984;5.822;2022-12-17T09:44:02;-2.90;99.90
24450;DHT22;13349;50.984;5.822;2022-12-17T09:46:52;-2.90;99.90
24450;DHT22;13349;50.984;5.822;2022-12-17T09:49:38;-2.90;99.90
24450;DHT22;13349;50.984;5.822;2022-12-17T09:52:25;-2.90;99.90
24450;DHT22;13349;50.984;5.822;2022-12-17T09:55:18;-2.90;99.90
24450;DHT22;13349;50.984;5.822;2022-12-17T09:58:04;-2.90;99.90
24450;DHT22;13349;50.984;5.822;2022-12-17T10:00:49;-2.80;99.90
24450;DHT22;13349;50.984;5.822;2022-12-17T10:03:44;-2.80;99.90
24450;DHT22;13349;50.984;5.822;2022-12-17T10:06:30;-2.80;99.90
24450;DHT22;13349;50.984;5.822;2022-12-17T10:09:16;-2.80;99.90
24450;DHT22;13349;50.984;5.822;2022-12-17T10:12:11;-2.80;99.90
24450;DHT22;13349;50.984;5.822;2022-12-17T10:14:57;-2.80;99.90
24450;DHT22;13349;50.984;5.822;2022-12-17T10:17:41;-2.70;99.90
24450;DHT22;13349;50.984;5.822;2022-12-17T10:20:31;-2.70;99.90
24450;DHT22;13349;50.984;5.822;2022-12-17T10:23:24;-2.70;99.90
24450;DHT22;13349;50.984;5.822;2022-12-17T10:26:16;-2.70;99.90
24450;DHT22;13349;50.984;5.822;2022-12-17T10:29:04;-2.60;99.90
24450;DHT22;13349;50.984;5.822;2022-12-17T10:31:49;-2.60;99.90
24450;DHT22;13349;50.984;5.822;2022-12-17T10:34:36;-2.70;99.90
24450;DHT22;13349;50.984;5.822;2022-12-17T10:37:21;-2.60;99.90
24450;DHT22;13349;50.984;5.822;2022-12-17T10:40:17;-2.60;99.90
24450;DHT22;13349;50.984;5.822;2022-12-17T10:46:05;-2.70;99.90
24450;DHT22;13349;50.984;5.822;2022-12-17T10:48:49;-2.60;99.90
24450;DHT22;13349;50.984;5.822;2022-12-17T10:51:39;-2.80;99.90
24450;DHT22;13349;50.984;5.822;2022-12-17T10:54:39;-2.70;99.90
24450;DHT22;13349;50.984;5.822;2022-12-17T10:57:29;-2.70;99.90
24450;DHT22;13349;50.984;5.822;2022-12-17T11:00:22;-2.60;99.90
24450;DHT22;13349;50.984;5.822;2022-12-17T11:03:26;-2.70;99.90
24450;DHT22;13349;50.984;5.822;2022-12-17T11:06:15;-2.70;99.90
24450;DHT22;13349;50.984;5.822;2022-12-17T11:09:01;-2.70;99.90
24450;DHT22;13349;50.984;5.822;2022-12-17T11:11:51;-2.60;99.90
24450;DHT22;13349;50.984;5.822;2022-12-17T11:14:51;-2.60;99.90
24450;DHT22;13349;50.984;5.822;2022-12-17T11:17:39;-2.50;99.90
24450;DHT22;13349;50.984;5.822;2022-12-17T11:20:33;-2.30;99.90
24450;DHT22;13349;50.984;5.822;2022-12-17T11:23:24;-2.50;99.90
24450;DHT22;13349;50.984;5.822;2022-12-17T11:26:12;-2.50;99.90
24450;DHT22;13349;50.984;5.822;2022-12-17T11:28:58;-2.50;99.90
24450;DHT22;13349;50.984;5.822;2022-12-17T11:31:53;-2.50;99.90
24450;DHT22;13349;50.984;5.822;2022-12-17T11:34:54;-2.50;99.90
24450;DHT22;13349;50.984;5.822;2022-12-17T11:37:46;-2.40;99.90
24450;DHT22;13349;50.984;5.822;2022-12-17T11:40:37;-2.30;99.90
24450;DHT22;13349;50.984;5.822;2022-12-17T11:43:26;-2.30;99.90
24450;DHT22;13349;50.984;5.822;2022-12-17T11:46:24;-2.20;99.90
24450;DHT22;13349;50.984;5.822;2022-12-17T11:49:17;-2.20;99.90
24450;DHT22;13349;50.984;5.822;2022-12-17T11:52:14;-2.30;99.90
24450;DHT22;13349;50.984;5.822;2022-12-17T11:55:11;-2.40;99.90
24450;DHT22;13349;50.984;5.822;2022-12-17T11:58:02;-2.40;99.90
24450;DHT22;13349;50.984;5.822;2022-12-17T12:00:54;-2.30;99.90
24450;DHT22;13349;50.984;5.822;2022-12-17T12:03:52;-2.30;99.90
24450;DHT22;13349;50.984;5.822;2022-12-17T12:06:47;-2.30;99.90
24450;DHT22;13349;50.984;5.822;2022-12-17T12:09:40;-2.20;99.90
24450;DHT22;13349;50.984;5.822;2022-12-17T12:12:42;-2.20;99.90
24450;DHT22;13349;50.984;5.822;2022-12-17T12:15:34;-2.10;99.90
24450;DHT22;13349;50.984;5.822;2022-12-17T12:18:30;-2.00;99.90
24450;DHT22;13349;50.984;5.822;2022-12-17T12:21:39;-1.90;99.90
24450;DHT22;13349;50.984;5.822;2022-12-17T12:24:46;-1.80;99.90
24450;DHT22;13349;50.984;5.822;2022-12-17T12:27:40;-1.90;99.90
24450;DHT22;13349;50.984;5.822;2022-12-17T12:30:34;-1.90;31.20
24450;DHT22;13349;50.984;5.822;2022-12-17T12:33:26;-1.90;1.00
24450;DHT22;13349;50.984;5.822;2022-12-17T12:36:17;-1.90;1.00
24450;DHT22;13349;50.984;5.822;2022-12-17T12:39:02;-1.80;1.00
24450;DHT22;13349;50.984;5.822;2022-12-17T12:41:51;-1.90;1.00
24450;DHT22;13349;50.984;5.822;2022-12-17T12:44:45;-1.90;1.00
24450;DHT22;13349;50.984;5.822;2022-12-17T12:47:39;-1.80;1.00
24450;DHT22;13349;50.984;5.822;2022-12-17T12:50:32;-1.80;99.90
24450;DHT22;13349;50.984;5.822;2022-12-17T12:53:21;-1.80;40.10
24450;DHT22;13349;50.984;5.822;2022-12-17T12:56:24;-1.80;1.00
24450;DHT22;13349;50.984;5.822;2022-12-17T12:59:11;-1.90;1.00
24450;DHT22;13349;50.984;5.822;2022-12-17T13:05:26;-1.80;1.00
24450;DHT22;13349;50.984;5.822;2022-12-17T13:08:03;-1.80;1.00
24450;DHT22;13349;50.984;5.822;2022-12-17T13:10:42;-1.70;1.00
24450;DHT22;13349;50.984;5.822;2022-12-17T13:13:22;-1.80;99.90
24450;DHT22;13349;50.984;5.822;2022-12-17T13:15:54;-1.70;1.00
24450;DHT22;13349;50.984;5.822;2022-12-17T13:18:28;-1.70;1.00
24450;DHT22;13349;50.984;5.822;2022-12-17T13:21:03;-1.60;1.00
24450;DHT22;13349;50.984;5.822;2022-12-17T13:23:34;-1.60;99.90
24450;DHT22;13349;50.984;5.822;2022-12-17T13:26:20;-1.50;99.90
24450;DHT22;13349;50.984;5.822;2022-12-17T13:29:00;-1.60;1.00
24450;DHT22;13349;50.984;5.822;2022-12-17T13:31:30;-1.60;1.00
24450;DHT22;13349;50.984;5.822;2022-12-17T13:34:07;-1.40;1.00
24450;DHT22;13349;50.984;5.822;2022-12-17T13:36:43;-1.40;1.00
24450;DHT22;13349;50.984;5.822;2022-12-17T13:39:26;-1.40;99.90
24450;DHT22;13349;50.984;5.822;2022-12-17T13:41:57;-1.40;99.90
24450;DHT22;13349;50.984;5.822;2022-12-17T13:44:28;-1.60;1.00
24450;DHT22;13349;50.984;5.822;2022-12-17T13:46:58;-1.50;1.00
24450;DHT22;13349;50.984;5.822;2022-12-17T13:49:28;-1.50;1.00
24450;DHT22;13349;50.984;5.822;2022-12-17T13:52:04;-1.50;1.00
24450;DHT22;13349;50.984;5.822;2022-12-17T13:54:31;-1.60;1.00
24450;DHT22;13349;50.984;5.822;2022-12-17T13:57:07;-1.70;1.00
24450;DHT22;13349;50.984;5.822;2022-12-17T13:59:34;-1.60;1.00
24450;DHT22;13349;50.984;5.822;2022-12-17T14:02:02;-1.60;1.00
24450;DHT22;13349;50.984;5.822;2022-12-17T14:04:31;-1.60;1.00
24450;DHT22;13349;50.984;5.822;2022-12-17T14:07:02;-1.70;99.90
24450;DHT22;13349;50.984;5.822;2022-12-17T14:09:34;-1.70;99.90
24450;DHT22;13349;50.984;5.822;2022-12-17T14:12:03;-1.70;1.00
24450;DHT22;13349;50.984;5.822;2022-12-17T14:14:52;-1.50;1.00
24450;DHT22;13349;50.984;5.822;2022-12-17T14:17:22;-1.40;1.00
24450;DHT22;13349;50.984;5.822;2022-12-17T14:19:57;-1.20;1.00
24450;DHT22;13349;50.984;5.822;2022-12-17T14:22:31;-1.20;99.90
24450;DHT22;13349;50.984;5.822;2022-12-17T14:24:59;-1.30;9.90
24450;DHT22;13349;50.984;5.822;2022-12-17T14:27:31;-1.30;1.00
24450;DHT22;13349;50.984;5.822;2022-12-17T14:29:59;-1.30;1.00
24450;DHT22;13349;50.984;5.822;2022-12-17T14:32:31;-1.30;1.00
24450;DHT22;13349;50.984;5.822;2022-12-17T14:35:01;-1.30;1.00
24450;DHT22;13349;50.984;5.822;2022-12-17T14:37:28;-1.50;99.90
24450;DHT22;13349;50.984;5.822;2022-12-17T14:40:00;-1.60;99.90
24450;DHT22;13349;50.984;5.822;2022-12-17T14:42:28;-1.80;99.90
24450;DHT22;13349;50.984;5.822;2022-12-17T14:44:59;-1.90;99.90
24450;DHT22;13349;50.984;5.822;2022-12-17T14:47:28;-2.10;11.10
24450;DHT22;13349;50.984;5.822;2022-12-17T14:50:03;-2.30;1.00
24450;DHT22;13349;50.984;5.822;2022-12-17T14:52:42;-2.40;1.00
24450;DHT22;13349;50.984;5.822;2022-12-17T14:55:27;-2.50;1.00
24450;DHT22;13349;50.984;5.822;2022-12-17T14:58:16;-2.60;99.90
24450;DHT22;13349;50.984;5.822;2022-12-17T15:00:46;-2.70;99.90
24450;DHT22;13349;50.984;5.822;2022-12-17T15:03:21;-2.70;99.90
24450;DHT22;13349;50.984;5.822;2022-12-17T15:05:52;-2.80;99.90
24450;DHT22;13349;50.984;5.822;2022-12-17T15:08:21;-2.90;99.90
24450;DHT22;13349;50.984;5.822;2022-12-17T15:10:48;-2.90;1.00
24450;DHT22;13349;50.984;5.822;2022-12-17T15:13:15;-2.80;1.00
24450;DHT22;13349;50.984;5.822;2022-12-17T15:15:42;-2.90;1.00
24450;DHT22;13349;50.984;5.822;2022-12-17T15:18:09;-2.90;1.00
24450;DHT22;13349;50.984;5.822;2022-12-17T15:20:36;-2.90;1.00
24450;DHT22;13349;50.984;5.822;2022-12-17T15:23:07;-2.90;1.00
24450;DHT22;13349;50.984;5.822;2022-12-17T15:25:35;-3.00;17.30
24450;DHT22;13349;50.984;5.822;2022-12-17T15:28:02;-3.10;99.90
24450;DHT22;13349;50.984;5.822;2022-12-17T15:30:29;-3.20;99.90
24450;DHT22;13349;50.984;5.822;2022-12-17T15:32:57;-3.20;99.90
24450;DHT22;13349;50.984;5.822;2022-12-17T15:35:24;-3.30;99.90
24450;DHT22;13349;50.984;5.822;2022-12-17T15:37:51;-3.30;99.90
24450;DHT22;13349;50.984;5.822;2022-12-17T15:40:20;-3.40;99.90
24450;DHT22;13349;50.984;5.822;2022-12-17T15:42:47;-3.50;99.90
24450;DHT22;13349;50.984;5.822;2022-12-17T15:45:31;-3.40;1.00
24450;DHT22;13349;50.984;5.822;2022-12-17T15:47:59;-3.40;1.00
24450;DHT22;13349;50.984;5.822;2022-12-17T15:50:26;-3.50;1.00
24450;DHT22;13349;50.984;5.822;2022-12-17T15:52:53;-3.60;1.00
24450;DHT22;13349;50.984;5.822;2022-12-17T15:55:21;-3.60;1.00
24450;DHT22;13349;50.984;5.822;2022-12-17T15:57:49;-3.90;1.00
24450;DHT22;13349;50.984;5.822;2022-12-17T16:00:16;-4.00;1.00
24450;DHT22;13349;50.984;5.822;2022-12-17T16:02:44;-4.10;1.00
24450;DHT22;13349;50.984;5.822;2022-12-17T16:05:11;-4.30;1.00
24450;DHT22;13349;50.984;5.822;2022-12-17T16:07:38;-4.30;1.00
24450;DHT22;13349;50.984;5.822;2022-12-17T16:10:06;-4.40;1.00
24450;DHT22;13349;50.984;5.822;2022-12-17T16:12:34;-4.40;90.80
24450;DHT22;13349;50.984;5.822;2022-12-17T16:15:02;-4.50;99.90
24450;DHT22;13349;50.984;5.822;2022-12-17T16:17:29;-4.60;99.90
24450;DHT22;13349;50.984;5.822;2022-12-17T16:19:57;-4.60;99.90
24450;DHT22;13349;50.984;5.822;2022-12-17T16:22:25;-4.70;99.90
24450;DHT22;13349;50.984;5.822;2022-12-17T16:24:52;-4.70;99.90
24450;DHT22;13349;50.984;5.822;2022-12-17T16:27:19;-4.80;99.90
24450;DHT22;13349;50.984;5.822;2022-12-17T16:29:48;-5.00;99.90
24450;DHT22;13349;50.984;5.822;2022-12-17T16:32:16;-4.90;1.00
24450;DHT22;13349;50.984;5.822;2022-12-17T16:34:43;-5.10;1.00
24450;DHT22;13349;50.984;5.822;2022-12-17T16:37:11;-5.10;1.00
24450;DHT22;13349;50.984;5.822;2022-12-17T16:39:38;-5.00;1.00
24450;DHT22;13349;50.984;5.822;2022-12-17T16:42:06;-5.00;1.00
24450;DHT22;13349;50.984;5.822;2022-12-17T16:44:33;-5.10;1.00
24450;DHT22;13349;50.984;5.822;2022-12-17T16:47:02;-5.10;1.00
24450;DHT22;13349;50.984;5.822;2022-12-17T16:49:29;-5.00;89.90
24450;DHT22;13349;50.984;5.822;2022-12-17T16:51:56;-4.90;99.90
24450;DHT22;13349;50.984;5.822;2022-12-17T16:54:25;-5.00;99.90
24450;DHT22;13349;50.984;5.822;2022-12-17T16:56:53;-5.20;99.90
24450;DHT22;13349;50.984;5.822;2022-12-17T16:59:21;-5.30;44.90
24450;DHT22;13349;50.984;5.822;2022-12-17T17:01:49;-5.30;98.30
24450;DHT22;13349;50.984;5.822;2022-12-17T17:04:20;-5.30;99.90
24450;DHT22;13349;50.984;5.822;2022-12-17T17:06:49;-5.20;99.90
24450;DHT22;13349;50.984;5.822;2022-12-17T17:09:17;-5.20;1.00
24450;DHT22;13349;50.984;5.822;2022-12-17T17:11:45;-5.20;1.00
24450;DHT22;13349;50.984;5.822;2022-12-17T17:14:12;-5.20;1.00
24450;DHT22;13349;50.984;5.822;2022-12-17T17:16:40;-5.30;1.00